x

North Nomad (46184) Wave Buoy

11:00pm - Sat 20th Sep 2014 All times are AKDT. -8 hours from GMT.

  • Sig Wave height 8.2ft
  • Peak Period 8s
  • Wind
    18mph, 22mph gusts
  • Sea Temp 59°f
  • Air Temp 57°f
  • Sea Pressure 999.6mb
  • North Nomad
  • North Nomad

More Historic Weather Station data

Upgrade to MSW Pro to gain access to the past 30 days of data for over 8000 Wavebouys and Weather Stations around the globe.

Join Pro

Comparision Forecast

View Surf forecast
   
Sat 09/20 11:00pm 8ft 8s 18 22 mph 999.6mb 59f 57f
10:00pm 8ft 8s 22 27 mph 1000.1mb 59f 57f
9:00pm 8ft 8s 18 22 mph 1002.1mb 59f 57f
8:00pm 8ft 8s 18 22 mph 1002.7mb 59f 56f
7:00pm 9ft 9s 16 20 mph 1003.4mb 59f 56f
6:00pm 9ft 8s 16 18 mph 1003.8mb 59f 56f
5:00pm 8.5ft 8s 13 18 mph 1005.1mb 59f 56f
4:00pm 8ft 9s 13 16 mph 1005.8mb 59f 56f
3:00pm 8.5ft 9s 11 13 mph 1006.2mb 59f 56f
2:00pm 8.5ft 10s 11 13 mph 1006.5mb 59f 56f
1:00pm 9.5ft 8s 7 9 mph 1006.9mb 59f 56f
12:00pm 10ft 10s 4
mph
1006.9mb 59f 56f
11:00am 10.5ft 8s  -  2 mph 1006.9mb 59f 56f
10:00am 10.5ft 10s 2 4 mph 1006.1mb 59f 57f
9:00am 10ft 9s 2 4 mph 1005.9mb 59f 58f
8:00am 10ft 9s 4 7 mph 1005.1mb 59f 57f
7:00am 11ft 8s 7 9 mph 1004.4mb 59f 57f
6:00am 10ft 8s 9 11 mph 1003.7mb 59f 57f
5:00am 11ft 11s 13 16 mph 1002.8mb 59f 57f
4:00am 10ft 10s 13 16 mph 1001.7mb 59f 57f
3:00am 10ft 10s 22 27 mph 999.7mb 59f 57f
2:00am  -   -  27
mph
- - -
1:00am 10ft 12s 29 36 mph 995.9mb 59f 56f
12:00am 11ft 11s 27 31 mph 995.8mb 59f 57f
Fri 09/19 11:00pm 10ft 12s 27 36 mph 996.8mb 59f 56f
10:00pm 10ft 10s 27 31 mph 999mb 59f 57f
9:00pm 10.5ft 11s 25 31 mph 1001.1mb 59f 56f
8:00pm 11ft 10s 16 20 mph 1004mb 59f 56f
7:00pm 11ft 10s 18 20 mph 1005.2mb 59f 56f
6:00pm 12.5ft 11s 18 22 mph 1005.9mb 59f 57f
5:00pm 13ft 12s 22 29 mph 1006.8mb 59f 58f
4:00pm 12.5ft 8s 16 18 mph 1007.7mb 59f 59f
3:00pm 12ft 11s 13 16 mph 1008.2mb 59f 59f
2:00pm 12.5ft 12s 16 18 mph 1008.2mb 59f 59f
1:00pm 13ft 13s 16 18 mph 1008.5mb 59f 59f
12:00pm 14ft 12s 16 20 mph 1008.3mb 59f 59f
11:00am 13.5ft 14s 18 20 mph 1007.9mb 59f 59f
10:00am 14.5ft 12s 18 22 mph 1007mb 59f 59f
9:00am 14ft 11s 20 27 mph 1006.7mb 59f 59f
8:00am 15.5ft 14s 22 27 mph 1005.6mb 59f 59f
7:00am 14.5ft 14s 22 27 mph 1004.5mb 59f 59f
6:00am 16ft 11s 25 31 mph 1003.5mb 59f 59f
5:00am 18.5ft 11s 25 34 mph 1002.5mb 59f 59f
4:00am  -   -  27
mph
1001.3mb 59f 59f
3:00am 19ft 12s 29 36 mph 1000.3mb 59f 58f
2:00am 20ft 12s 27
mph
999.5mb 59f 58f
1:00am 19.5ft 12s 31 38 mph 998mb 59f 59f
12:00am 19.5ft 12s 31 40 mph 997mb 59f 59f
Thu 09/18 11:00pm 19.5ft 13s 31 38 mph 995.9mb 59f 59f
10:00pm 19ft 13s 31 43 mph 994.6mb 59f 58f
9:00pm 19.5ft 12s 34 43 mph 993.3mb 59f 59f
8:00pm 18.5ft 12s 34 40 mph 992.1mb 59f 59f
7:00pm 18.5ft 11s 34 43 mph 990.7mb 59f 58f
6:00pm 18ft 10s 36 45 mph 989.4mb 59f 59f
5:00pm 17ft 10s 31 43 mph 988.7mb 59f 58f
4:00pm 17.5ft 10s 36 45 mph 987.6mb 59f 60f
3:00pm 16.5ft 10s 34 45 mph 986.9mb 59f 60f
2:00pm 15.5ft 9s 34 43 mph 986.2mb 59f 59f
1:00pm 13.5ft 8s 34 45 mph 985.5mb 60f 59f
12:00pm 12ft 9s 36 45 mph 984.6mb 60f 59f
11:00am 11ft 8s 34 43 mph 984.2mb 60f 59f
10:00am 10ft 8s 31 38 mph 984.1mb 60f 60f
9:00am 9ft 8s 29 38 mph 984.3mb 60f 60f
8:00am 9ft 8s 22 29 mph 985mb 60f 60f
7:00am 9.5ft 8s 25 29 mph 985.4mb 60f 60f
6:00am 9ft 8s 25 34 mph 985.5mb 60f 61f
5:00am 9ft 8s 20 25 mph 986.6mb 60f 60f
4:00am 9ft 9s 22 27 mph 987.9mb 60f 59f
3:00am 10ft 9s 18 22 mph 989mb 60f 60f
2:00am 10ft 9s 22 27 mph 989.6mb 60f 60f
1:00am 10ft 9s 20 25 mph 990.5mb 60f 60f
12:00am 10ft 8s 25 29 mph 991.2mb 60f 60f
Wed 09/17 11:00pm 10ft 8s 27 34 mph 992.2mb 60f 60f
10:00pm 9.5ft 8s 25 31 mph 993.2mb 60f 59f
9:00pm 8.5ft 7s 29 36 mph 994.1mb 60f 58f
8:00pm 8ft 6s 27 31 mph 995.5mb 60f 58f
7:00pm 7.5ft 6s 22 27 mph 996.7mb 60f 58f
6:00pm 7ft 6s 29 36 mph 997.3mb 60f 58f
5:00pm 6.5ft 5s 27 31 mph 998.9mb 60f 58f
4:00pm 6ft 20s 25 29 mph 1000.2mb 60f 58f
3:00pm 5ft  -  25 29 mph 1001.4mb 60f 58f
2:00pm 5ft 20s 22 25 mph 1002.5mb 60f 59f
1:00pm 5ft 20s 20 25 mph 1003.4mb 60f 59f
12:00pm 5ft 20s 20 25 mph 1004.2mb 60f 59f
11:00am 5.5ft 8s 18 20 mph 1004.9mb 60f 59f
10:00am 5.5ft 9s 16 20 mph 1005.6mb 60f 58f
9:00am 5.5ft 10s 13 18 mph 1006mb 60f 58f